sensor_id;sensor_type;location;lat;lon;timestamp;temperature;humidity
36444;DHT22;24692;45.642;13.806;2023-03-03T00:00:46;9.00;99.90
36444;DHT22;24692;45.642;13.806;2023-03-03T00:03:15;8.90;99.90
36444;DHT22;24692;45.642;13.806;2023-03-03T00:05:42;8.90;99.90
36444;DHT22;24692;45.642;13.806;2023-03-03T00:08:08;8.90;99.90
36444;DHT22;24692;45.642;13.806;2023-03-03T00:10:35;8.90;99.90
36444;DHT22;24692;45.642;13.806;2023-03-03T00:13:01;9.00;99.90
36444;DHT22;24692;45.642;13.806;2023-03-03T00:15:26;9.00;99.90
36444;DHT22;24692;45.642;13.806;2023-03-03T00:17:53;9.00;99.90
36444;DHT22;24692;45.642;13.806;2023-03-03T00:20:35;9.00;99.90
36444;DHT22;24692;45.642;13.806;2023-03-03T00:25:52;9.10;99.90
36444;DHT22;24692;45.642;13.806;2023-03-03T00:28:28;9.10;99.90
36444;DHT22;24692;45.642;13.806;2023-03-03T00:30:56;9.10;99.90
36444;DHT22;24692;45.642;13.806;2023-03-03T00:33:32;9.20;99.90
36444;DHT22;24692;45.642;13.806;2023-03-03T00:36:33;9.20;99.90
36444;DHT22;24692;45.642;13.806;2023-03-03T00:39:18;9.20;99.90
36444;DHT22;24692;45.642;13.806;2023-03-03T00:41:44;9.20;99.90
36444;DHT22;24692;45.642;13.806;2023-03-03T00:47:45;9.00;99.90
36444;DHT22;24692;45.642;13.806;2023-03-03T00:49:45;9.00;99.90
36444;DHT22;24692;45.642;13.806;2023-03-03T00:52:16;9.00;99.90
36444;DHT22;24692;45.642;13.806;2023-03-03T00:54:42;9.00;99.90
36444;DHT22;24692;45.642;13.806;2023-03-03T00:57:08;9.00;99.90
36444;DHT22;24692;45.642;13.806;2023-03-03T00:59:34;9.10;99.90
36444;DHT22;24692;45.642;13.806;2023-03-03T01:01:59;9.00;99.90
36444;DHT22;24692;45.642;13.806;2023-03-03T01:04:25;9.00;99.90
36444;DHT22;24692;45.642;13.806;2023-03-03T01:06:50;9.00;99.90
36444;DHT22;24692;45.642;13.806;2023-03-03T01:09:16;9.00;99.90
36444;DHT22;24692;45.642;13.806;2023-03-03T01:11:42;9.00;99.90
36444;DHT22;24692;45.642;13.806;2023-03-03T01:14:08;9.00;99.90
36444;DHT22;24692;45.642;13.806;2023-03-03T01:16:34;9.00;99.90
36444;DHT22;24692;45.642;13.806;2023-03-03T01:18:59;8.90;99.90
36444;DHT22;24692;45.642;13.806;2023-03-03T01:21:25;8.90;99.90
36444;DHT22;24692;45.642;13.806;2023-03-03T01:23:51;9.00;99.90
36444;DHT22;24692;45.642;13.806;2023-03-03T01:26:16;8.90;99.90
36444;DHT22;24692;45.642;13.806;2023-03-03T01:28:42;8.90;99.90
36444;DHT22;24692;45.642;13.806;2023-03-03T01:31:08;8.90;99.90
36444;DHT22;24692;45.642;13.806;2023-03-03T01:33:34;8.90;99.90
36444;DHT22;24692;45.642;13.806;2023-03-03T01:36:01;8.90;99.90
36444;DHT22;24692;45.642;13.806;2023-03-03T01:38:26;8.90;99.90
36444;DHT22;24692;45.642;13.806;2023-03-03T01:40:54;8.90;99.90
36444;DHT22;24692;45.642;13.806;2023-03-03T01:43:20;9.00;99.90
36444;DHT22;24692;45.642;13.806;2023-03-03T01:51:01;9.00;99.90
36444;DHT22;24692;45.642;13.806;2023-03-03T01:53:36;9.00;99.90
36444;DHT22;24692;45.642;13.806;2023-03-03T01:56:05;9.00;99.90
36444;DHT22;24692;45.642;13.806;2023-03-03T01:58:38;8.90;99.90
36444;DHT22;24692;45.642;13.806;2023-03-03T02:01:11;9.00;99.90
36444;DHT22;24692;45.642;13.806;2023-03-03T02:03:39;8.90;99.90
36444;DHT22;24692;45.642;13.806;2023-03-03T02:06:14;8.90;99.90
36444;DHT22;24692;45.642;13.806;2023-03-03T02:11:29;8.80;99.90
36444;DHT22;24692;45.642;13.806;2023-03-03T02:13:56;8.80;99.90
36444;DHT22;24692;45.642;13.806;2023-03-03T02:16:22;8.70;99.90
36444;DHT22;24692;45.642;13.806;2023-03-03T02:18:48;8.70;99.90
36444;DHT22;24692;45.642;13.806;2023-03-03T02:21:15;8.70;99.90
36444;DHT22;24692;45.642;13.806;2023-03-03T02:26:21;8.80;99.90
36444;DHT22;24692;45.642;13.806;2023-03-03T02:28:47;8.70;99.90
36444;DHT22;24692;45.642;13.806;2023-03-03T02:31:16;8.70;99.90
36444;DHT22;24692;45.642;13.806;2023-03-03T02:33:44;8.70;99.90
36444;DHT22;24692;45.642;13.806;2023-03-03T02:36:28;8.70;99.90
36444;DHT22;24692;45.642;13.806;2023-03-03T02:41:31;8.70;99.90
36444;DHT22;24692;45.642;13.806;2023-03-03T02:44:14;8.70;99.90
36444;DHT22;24692;45.642;13.806;2023-03-03T02:46:45;8.70;99.90
36444;DHT22;24692;45.642;13.806;2023-03-03T02:49:14;8.70;99.90
36444;DHT22;24692;45.642;13.806;2023-03-03T02:51:41;8.70;99.90
36444;DHT22;24692;45.642;13.806;2023-03-03T02:54:08;8.70;99.90
36444;DHT22;24692;45.642;13.806;2023-03-03T02:56:35;8.70;99.90
36444;DHT22;24692;45.642;13.806;2023-03-03T02:59:00;8.70;99.90
36444;DHT22;24692;45.642;13.806;2023-03-03T03:01:26;8.80;99.90
36444;DHT22;24692;45.642;13.806;2023-03-03T03:03:52;8.80;99.90
36444;DHT22;24692;45.642;13.806;2023-03-03T03:06:18;8.80;99.90
36444;DHT22;24692;45.642;13.806;2023-03-03T03:08:44;8.80;99.90
36444;DHT22;24692;45.642;13.806;2023-03-03T03:11:10;8.80;99.90
36444;DHT22;24692;45.642;13.806;2023-03-03T03:13:35;8.80;99.90
36444;DHT22;24692;45.642;13.806;2023-03-03T03:16:01;8.70;99.90
36444;DHT22;24692;45.642;13.806;2023-03-03T03:18:27;8.60;99.90
36444;DHT22;24692;45.642;13.806;2023-03-03T03:20:53;8.50;99.90
36444;DHT22;24692;45.642;13.806;2023-03-03T03:23:19;8.50;99.90
36444;DHT22;24692;45.642;13.806;2023-03-03T03:25:46;8.50;99.90
36444;DHT22;24692;45.642;13.806;2023-03-03T03:28:16;8.50;99.90
36444;DHT22;24692;45.642;13.806;2023-03-03T03:30:43;8.60;99.90
36444;DHT22;24692;45.642;13.806;2023-03-03T03:33:10;8.60;99.90
36444;DHT22;24692;45.642;13.806;2023-03-03T03:35:36;8.60;99.90
36444;DHT22;24692;45.642;13.806;2023-03-03T03:38:02;8.50;99.90
36444;DHT22;24692;45.642;13.806;2023-03-03T03:40:28;8.50;99.90
36444;DHT22;24692;45.642;13.806;2023-03-03T03:42:54;8.40;99.90
36444;DHT22;24692;45.642;13.806;2023-03-03T03:45:20;8.40;99.90
36444;DHT22;24692;45.642;13.806;2023-03-03T03:47:46;8.50;99.90
36444;DHT22;24692;45.642;13.806;2023-03-03T03:50:12;8.50;99.90
36444;DHT22;24692;45.642;13.806;2023-03-03T03:52:37;8.50;99.90
36444;DHT22;24692;45.642;13.806;2023-03-03T03:55:03;8.50;99.90
36444;DHT22;24692;45.642;13.806;2023-03-03T03:57:29;8.40;99.90
36444;DHT22;24692;45.642;13.806;2023-03-03T03:59:55;8.50;99.90
36444;DHT22;24692;45.642;13.806;2023-03-03T04:02:21;8.50;99.90
36444;DHT22;24692;45.642;13.806;2023-03-03T04:04:46;8.50;99.90
36444;DHT22;24692;45.642;13.806;2023-03-03T04:07:12;8.40;99.90
36444;DHT22;24692;45.642;13.806;2023-03-03T04:09:38;8.50;99.90
36444;DHT22;24692;45.642;13.806;2023-03-03T04:12:04;8.50;99.90
36444;DHT22;24692;45.642;13.806;2023-03-03T04:14:29;8.60;99.90
36444;DHT22;24692;45.642;13.806;2023-03-03T04:16:55;8.60;99.90
36444;DHT22;24692;45.642;13.806;2023-03-03T04:19:21;8.50;99.90
36444;DHT22;24692;45.642;13.806;2023-03-03T04:21:47;8.60;99.90
36444;DHT22;24692;45.642;13.806;2023-03-03T04:24:13;8.60;99.90
36444;DHT22;24692;45.642;13.806;2023-03-03T04:26:38;8.70;99.90
36444;DHT22;24692;45.642;13.806;2023-03-03T04:29:04;8.70;99.90
36444;DHT22;24692;45.642;13.806;2023-03-03T04:31:30;8.70;99.90
36444;DHT22;24692;45.642;13.806;2023-03-03T04:33:56;8.70;99.90
36444;DHT22;24692;45.642;13.806;2023-03-03T04:36:22;8.80;99.90
36444;DHT22;24692;45.642;13.806;2023-03-03T04:38:48;8.80;99.90
36444;DHT22;24692;45.642;13.806;2023-03-03T04:41:14;8.80;99.90
36444;DHT22;24692;45.642;13.806;2023-03-03T04:43:39;8.80;99.90
36444;DHT22;24692;45.642;13.806;2023-03-03T04:46:05;8.90;99.90
36444;DHT22;24692;45.642;13.806;2023-03-03T04:48:31;8.80;99.90
36444;DHT22;24692;45.642;13.806;2023-03-03T04:50:56;8.70;99.90
36444;DHT22;24692;45.642;13.806;2023-03-03T04:53:22;8.80;99.90
36444;DHT22;24692;45.642;13.806;2023-03-03T04:55:51;8.80;99.90
36444;DHT22;24692;45.642;13.806;2023-03-03T04:58:18;8.90;99.90
36444;DHT22;24692;45.642;13.806;2023-03-03T05:00:53;8.90;99.90
36444;DHT22;24692;45.642;13.806;2023-03-03T05:03:20;9.00;99.90
36444;DHT22;24692;45.642;13.806;2023-03-03T05:05:47;8.90;99.90
36444;DHT22;24692;45.642;13.806;2023-03-03T05:08:15;8.90;99.90
36444;DHT22;24692;45.642;13.806;2023-03-03T05:10:41;9.00;99.90
36444;DHT22;24692;45.642;13.806;2023-03-03T05:13:07;9.00;99.90
36444;DHT22;24692;45.642;13.806;2023-03-03T05:15:34;9.00;99.90
36444;DHT22;24692;45.642;13.806;2023-03-03T05:18:02;9.00;99.90
36444;DHT22;24692;45.642;13.806;2023-03-03T05:20:29;9.00;99.90
36444;DHT22;24692;45.642;13.806;2023-03-03T05:22:57;8.90;99.90
36444;DHT22;24692;45.642;13.806;2023-03-03T05:25:26;9.00;99.90
36444;DHT22;24692;45.642;13.806;2023-03-03T05:27:52;9.10;99.90
36444;DHT22;24692;45.642;13.806;2023-03-03T05:30:19;9.00;99.90
36444;DHT22;24692;45.642;13.806;2023-03-03T05:32:45;8.90;99.90
36444;DHT22;24692;45.642;13.806;2023-03-03T05:35:11;9.10;99.90
36444;DHT22;24692;45.642;13.806;2023-03-03T05:37:36;9.10;99.90
36444;DHT22;24692;45.642;13.806;2023-03-03T05:40:04;9.10;99.90
36444;DHT22;24692;45.642;13.806;2023-03-03T05:42:31;9.20;99.90
36444;DHT22;24692;45.642;13.806;2023-03-03T05:44:56;9.30;99.90
36444;DHT22;24692;45.642;13.806;2023-03-03T05:47:22;9.40;99.90
36444;DHT22;24692;45.642;13.806;2023-03-03T05:49:48;9.30;99.90
36444;DHT22;24692;45.642;13.806;2023-03-03T05:52:13;9.40;99.90
36444;DHT22;24692;45.642;13.806;2023-03-03T05:54:39;9.40;99.90
36444;DHT22;24692;45.642;13.806;2023-03-03T05:57:04;9.40;99.90
36444;DHT22;24692;45.642;13.806;2023-03-03T05:59:30;9.40;99.90
36444;DHT22;24692;45.642;13.806;2023-03-03T06:01:56;9.40;99.90
36444;DHT22;24692;45.642;13.806;2023-03-03T06:04:21;9.50;99.90
36444;DHT22;24692;45.642;13.806;2023-03-03T06:06:47;9.40;99.90
36444;DHT22;24692;45.642;13.806;2023-03-03T06:09:13;9.40;99.90
36444;DHT22;24692;45.642;13.806;2023-03-03T06:11:38;9.40;99.90
36444;DHT22;24692;45.642;13.806;2023-03-03T06:14:04;9.40;99.90
36444;DHT22;24692;45.642;13.806;2023-03-03T06:16:30;9.30;99.90
36444;DHT22;24692;45.642;13.806;2023-03-03T06:18:55;9.30;99.90
36444;DHT22;24692;45.642;13.806;2023-03-03T06:21:21;9.50;99.90
36444;DHT22;24692;45.642;13.806;2023-03-03T06:23:46;9.70;99.90
36444;DHT22;24692;45.642;13.806;2023-03-03T06:26:12;9.60;99.90
36444;DHT22;24692;45.642;13.806;2023-03-03T06:28:38;9.60;99.90
36444;DHT22;24692;45.642;13.806;2023-03-03T06:31:04;9.60;99.90
36444;DHT22;24692;45.642;13.806;2023-03-03T06:33:29;9.80;99.90
36444;DHT22;24692;45.642;13.806;2023-03-03T06:35:55;9.80;99.90
36444;DHT22;24692;45.642;13.806;2023-03-03T06:38:20;9.90;99.90
36444;DHT22;24692;45.642;13.806;2023-03-03T06:40:46;9.60;99.90
36444;DHT22;24692;45.642;13.806;2023-03-03T06:43:12;9.70;99.90
36444;DHT22;24692;45.642;13.806;2023-03-03T06:45:38;9.60;99.90
36444;DHT22;24692;45.642;13.806;2023-03-03T06:48:05;9.70;99.90
36444;DHT22;24692;45.642;13.806;2023-03-03T06:50:30;9.70;99.90
36444;DHT22;24692;45.642;13.806;2023-03-03T06:53:12;9.80;99.90
36444;DHT22;24692;45.642;13.806;2023-03-03T06:55:39;9.90;99.90
36444;DHT22;24692;45.642;13.806;2023-03-03T06:58:12;10.00;99.90
36444;DHT22;24692;45.642;13.806;2023-03-03T07:00:41;9.80;99.90
36444;DHT22;24692;45.642;13.806;2023-03-03T07:03:14;9.90;99.90
36444;DHT22;24692;45.642;13.806;2023-03-03T07:05:40;9.90;99.90
36444;DHT22;24692;45.642;13.806;2023-03-03T07:08:14;10.20;99.90
36444;DHT22;24692;45.642;13.806;2023-03-03T07:10:41;10.40;99.90
36444;DHT22;24692;45.642;13.806;2023-03-03T07:13:24;10.70;99.90
36444;DHT22;24692;45.642;13.806;2023-03-03T07:15:52;10.50;99.90
36444;DHT22;24692;45.642;13.806;2023-03-03T07:20:50;10.50;99.90
36444;DHT22;24692;45.642;13.806;2023-03-03T07:23:37;10.50;99.90
36444;DHT22;24692;45.642;13.806;2023-03-03T07:26:13;10.60;99.90
36444;DHT22;24692;45.642;13.806;2023-03-03T07:28:41;10.50;99.90
36444;DHT22;24692;45.642;13.806;2023-03-03T07:31:33;10.50;99.90
36444;DHT22;24692;45.642;13.806;2023-03-03T07:34:00;10.70;99.90
36444;DHT22;24692;45.642;13.806;2023-03-03T07:36:37;10.80;99.90
36444;DHT22;24692;45.642;13.806;2023-03-03T07:39:23;10.80;99.90
36444;DHT22;24692;45.642;13.806;2023-03-03T07:41:49;10.90;99.90
36444;DHT22;24692;45.642;13.806;2023-03-03T07:44:34;11.10;99.90
36444;DHT22;24692;45.642;13.806;2023-03-03T07:47:14;11.10;99.90
36444;DHT22;24692;45.642;13.806;2023-03-03T07:49:42;11.10;99.90
36444;DHT22;24692;45.642;13.806;2023-03-03T07:52:40;11.20;99.90
36444;DHT22;24692;45.642;13.806;2023-03-03T07:55:22;10.80;99.90
36444;DHT22;24692;45.642;13.806;2023-03-03T07:57:51;11.00;99.90
36444;DHT22;24692;45.642;13.806;2023-03-03T08:03:08;10.90;99.90
36444;DHT22;24692;45.642;13.806;2023-03-03T08:05:39;10.80;99.90
36444;DHT22;24692;45.642;13.806;2023-03-03T08:08:36;10.90;99.90
36444;DHT22;24692;45.642;13.806;2023-03-03T08:11:07;10.80;99.90
36444;DHT22;24692;45.642;13.806;2023-03-03T08:13:39;10.80;99.90
36444;DHT22;24692;45.642;13.806;2023-03-03T08:21:25;11.10;99.90
36444;DHT22;24692;45.642;13.806;2023-03-03T08:23:53;11.20;99.90
36444;DHT22;24692;45.642;13.806;2023-03-03T08:26:19;11.20;99.90
36444;DHT22;24692;45.642;13.806;2023-03-03T08:28:46;11.10;99.90
36444;DHT22;24692;45.642;13.806;2023-03-03T08:31:12;11.10;99.90
36444;DHT22;24692;45.642;13.806;2023-03-03T08:33:38;11.20;99.90
36444;DHT22;24692;45.642;13.806;2023-03-03T08:36:09;11.50;99.90
36444;DHT22;24692;45.642;13.806;2023-03-03T08:38:37;11.60;99.90
36444;DHT22;24692;45.642;13.806;2023-03-03T08:41:04;11.50;99.90
36444;DHT22;24692;45.642;13.806;2023-03-03T08:43:30;11.60;99.90
36444;DHT22;24692;45.642;13.806;2023-03-03T08:46:00;11.60;99.90
36444;DHT22;24692;45.642;13.806;2023-03-03T08:48:28;11.60;99.90
36444;DHT22;24692;45.642;13.806;2023-03-03T08:50:54;11.70;99.90
36444;DHT22;24692;45.642;13.806;2023-03-03T08:53:23;11.80;99.90
36444;DHT22;24692;45.642;13.806;2023-03-03T08:55:50;11.90;99.90
36444;DHT22;24692;45.642;13.806;2023-03-03T08:58:18;12.10;99.90
36444;DHT22;24692;45.642;13.806;2023-03-03T09:00:44;12.20;99.90
36444;DHT22;24692;45.642;13.806;2023-03-03T09:03:10;12.20;99.90
36444;DHT22;24692;45.642;13.806;2023-03-03T09:05:37;12.00;99.90
36444;DHT22;24692;45.642;13.806;2023-03-03T09:08:04;12.20;99.90
36444;DHT22;24692;45.642;13.806;2023-03-03T09:10:30;12.10;99.90
36444;DHT22;24692;45.642;13.806;2023-03-03T09:12:58;12.00;99.90
36444;DHT22;24692;45.642;13.806;2023-03-03T09:15:31;12.00;99.90
36444;DHT22;24692;45.642;13.806;2023-03-03T09:20:37;12.10;99.90
36444;DHT22;24692;45.642;13.806;2023-03-03T09:23:31;12.10;99.90
36444;DHT22;24692;45.642;13.806;2023-03-03T09:26:22;12.20;99.90
36444;DHT22;24692;45.642;13.806;2023-03-03T09:28:52;12.30;99.90
36444;DHT22;24692;45.642;13.806;2023-03-03T09:31:38;12.20;99.90
36444;DHT22;24692;45.642;13.806;2023-03-03T09:34:24;12.10;99.90
36444;DHT22;24692;45.642;13.806;2023-03-03T09:36:53;12.20;99.90
36444;DHT22;24692;45.642;13.806;2023-03-03T09:39:22;12.30;99.90
36444;DHT22;24692;45.642;13.806;2023-03-03T10:01:54;13.00;99.90
36444;DHT22;24692;45.642;13.806;2023-03-03T10:16:11;12.80;99.90
36444;DHT22;24692;45.642;13.806;2023-03-03T10:21:45;12.70;99.90
36444;DHT22;24692;45.642;13.806;2023-03-03T10:25:07;12.80;99.90
36444;DHT22;24692;45.642;13.806;2023-03-03T10:27:43;12.90;99.90
36444;DHT22;24692;45.642;13.806;2023-03-03T10:30:33;12.70;99.90
36444;DHT22;24692;45.642;13.806;2023-03-03T10:33:19;12.60;99.90
36444;DHT22;24692;45.642;13.806;2023-03-03T10:38:37;12.60;99.90
36444;DHT22;24692;45.642;13.806;2023-03-03T10:41:10;12.70;99.90
36444;DHT22;24692;45.642;13.806;2023-03-03T10:46:54;12.40;99.90
36444;DHT22;24692;45.642;13.806;2023-03-03T10:55:19;12.50;99.90
36444;DHT22;24692;45.642;13.806;2023-03-03T10:58:05;12.80;99.90
36444;DHT22;24692;45.642;13.806;2023-03-03T11:03:30;12.70;99.90
36444;DHT22;24692;45.642;13.806;2023-03-03T11:06:05;12.70;99.90
36444;DHT22;24692;45.642;13.806;2023-03-03T11:08:40;12.40;99.90
36444;DHT22;24692;45.642;13.806;2023-03-03T11:14:12;13.00;99.90
36444;DHT22;24692;45.642;13.806;2023-03-03T11:20:10;14.30;99.90
36444;DHT22;24692;45.642;13.806;2023-03-03T11:23:00;15.30;99.90
36444;DHT22;24692;45.642;13.806;2023-03-03T11:28:18;16.40;99.90
36444;DHT22;24692;45.642;13.806;2023-03-03T11:39:01;16.90;99.90
36444;DHT22;24692;45.642;13.806;2023-03-03T11:41:51;16.70;99.90
36444;DHT22;24692;45.642;13.806;2023-03-03T11:44:32;16.20;99.90
36444;DHT22;24692;45.642;13.806;2023-03-03T11:47:25;16.50;99.90
36444;DHT22;24692;45.642;13.806;2023-03-03T11:50:04;16.10;99.90
36444;DHT22;24692;45.642;13.806;2023-03-03T11:55:45;15.60;99.90
36444;DHT22;24692;45.642;13.806;2023-03-03T11:58:30;15.50;99.90
36444;DHT22;24692;45.642;13.806;2023-03-03T12:01:41;15.30;99.90
36444;DHT22;24692;45.642;13.806;2023-03-03T12:04:11;15.70;99.90
36444;DHT22;24692;45.642;13.806;2023-03-03T12:12:58;16.10;99.90
36444;DHT22;24692;45.642;13.806;2023-03-03T12:26:24;16.00;99.90
36444;DHT22;24692;45.642;13.806;2023-03-03T12:34:46;16.20;99.90
36444;DHT22;24692;45.642;13.806;2023-03-03T12:37:41;16.20;99.90
36444;DHT22;24692;45.642;13.806;2023-03-03T12:40:20;16.40;99.90
36444;DHT22;24692;45.642;13.806;2023-03-03T12:48:37;19.10;99.90
36444;DHT22;24692;45.642;13.806;2023-03-03T12:55:00;19.60;99.90
36444;DHT22;24692;45.642;13.806;2023-03-03T12:59:47;19.80;99.90
36444;DHT22;24692;45.642;13.806;2023-03-03T13:03:08;20.30;99.90
36444;DHT22;24692;45.642;13.806;2023-03-03T13:05:50;19.80;99.90
36444;DHT22;24692;45.642;13.806;2023-03-03T13:11:00;20.70;99.90
36444;DHT22;24692;45.642;13.806;2023-03-03T13:13:36;20.70;99.90
36444;DHT22;24692;45.642;13.806;2023-03-03T13:16:11;21.40;99.90
36444;DHT22;24692;45.642;13.806;2023-03-03T13:24:06;20.10;99.90
36444;DHT22;24692;45.642;13.806;2023-03-03T13:26:42;20.60;99.90
36444;DHT22;24692;45.642;13.806;2023-03-03T13:29:22;20.50;99.90
36444;DHT22;24692;45.642;13.806;2023-03-03T13:35:01;22.30;99.90
36444;DHT22;24692;45.642;13.806;2023-03-03T13:37:37;21.90;99.90
36444;DHT22;24692;45.642;13.806;2023-03-03T13:50:40;19.50;99.90
36444;DHT22;24692;45.642;13.806;2023-03-03T13:53:50;18.20;99.90
36444;DHT22;24692;45.642;13.806;2023-03-03T14:05:03;15.50;99.90
36444;DHT22;24692;45.642;13.806;2023-03-03T14:07:47;15.00;99.90
36444;DHT22;24692;45.642;13.806;2023-03-03T14:15:25;15.40;99.90
36444;DHT22;24692;45.642;13.806;2023-03-03T14:18:03;15.50;99.90
36444;DHT22;24692;45.642;13.806;2023-03-03T14:20:34;15.90;99.90
36444;DHT22;24692;45.642;13.806;2023-03-03T14:23:06;15.80;99.90
36444;DHT22;24692;45.642;13.806;2023-03-03T14:25:55;15.30;99.90
36444;DHT22;24692;45.642;13.806;2023-03-03T14:28:23;14.60;99.90
36444;DHT22;24692;45.642;13.806;2023-03-03T14:30:52;14.20;99.90
36444;DHT22;24692;45.642;13.806;2023-03-03T14:33:20;14.50;99.90
36444;DHT22;24692;45.642;13.806;2023-03-03T14:36:00;14.60;99.90
36444;DHT22;24692;45.642;13.806;2023-03-03T14:41:39;15.60;99.90
36444;DHT22;24692;45.642;13.806;2023-03-03T14:44:57;15.80;99.90
36444;DHT22;24692;45.642;13.806;2023-03-03T14:47:23;16.20;99.90
36444;DHT22;24692;45.642;13.806;2023-03-03T14:49:52;16.50;99.90
36444;DHT22;24692;45.642;13.806;2023-03-03T14:52:27;15.70;99.90
36444;DHT22;24692;45.642;13.806;2023-03-03T14:54:58;16.00;99.90
36444;DHT22;24692;45.642;13.806;2023-03-03T15:05:28;16.60;99.90
36444;DHT22;24692;45.642;13.806;2023-03-03T15:10:35;16.10;99.90
36444;DHT22;24692;45.642;13.806;2023-03-03T15:16:08;15.70;99.90
36444;DHT22;24692;45.642;13.806;2023-03-03T15:18:54;15.60;99.90
36444;DHT22;24692;45.642;13.806;2023-03-03T15:21:30;15.60;99.90
36444;DHT22;24692;45.642;13.806;2023-03-03T15:27:03;16.10;99.90
36444;DHT22;24692;45.642;13.806;2023-03-03T15:35:29;14.70;99.90
36444;DHT22;24692;45.642;13.806;2023-03-03T15:38:04;14.50;99.90
36444;DHT22;24692;45.642;13.806;2023-03-03T15:40:48;14.40;99.90
36444;DHT22;24692;45.642;13.806;2023-03-03T15:43:19;14.00;99.90
36444;DHT22;24692;45.642;13.806;2023-03-03T15:51:57;13.00;99.90
36444;DHT22;24692;45.642;13.806;2023-03-03T16:02:49;13.70;99.90
36444;DHT22;24692;45.642;13.806;2023-03-03T16:05:28;13.90;99.90
36444;DHT22;24692;45.642;13.806;2023-03-03T16:08:29;14.10;99.90
36444;DHT22;24692;45.642;13.806;2023-03-03T16:13:35;13.50;99.90
36444;DHT22;24692;45.642;13.806;2023-03-03T16:19:05;13.80;99.90
36444;DHT22;24692;45.642;13.806;2023-03-03T16:27:23;13.20;99.90
36444;DHT22;24692;45.642;13.806;2023-03-03T16:30:12;13.00;99.90
36444;DHT22;24692;45.642;13.806;2023-03-03T16:35:23;12.70;99.90
36444;DHT22;24692;45.642;13.806;2023-03-03T16:37:55;12.30;99.90
36444;DHT22;24692;45.642;13.806;2023-03-03T16:45:40;11.80;99.90
36444;DHT22;24692;45.642;13.806;2023-03-03T16:48:20;11.60;99.90
36444;DHT22;24692;45.642;13.806;2023-03-03T16:50:54;11.50;99.90
36444;DHT22;24692;45.642;13.806;2023-03-03T16:53:38;11.60;99.90
36444;DHT22;24692;45.642;13.806;2023-03-03T16:56:22;11.60;99.90
36444;DHT22;24692;45.642;13.806;2023-03-03T16:58:55;11.60;99.90
36444;DHT22;24692;45.642;13.806;2023-03-03T17:04:00;11.00;99.90
36444;DHT22;24692;45.642;13.806;2023-03-03T17:12:13;11.00;99.90
36444;DHT22;24692;45.642;13.806;2023-03-03T17:17:42;10.50;99.90
36444;DHT22;24692;45.642;13.806;2023-03-03T17:20:24;10.50;99.90
36444;DHT22;24692;45.642;13.806;2023-03-03T17:23:18;10.50;99.90
36444;DHT22;24692;45.642;13.806;2023-03-03T17:26:05;10.60;99.90
36444;DHT22;24692;45.642;13.806;2023-03-03T17:28:43;10.70;99.90
36444;DHT22;24692;45.642;13.806;2023-03-03T17:33:51;10.60;99.90
36444;DHT22;24692;45.642;13.806;2023-03-03T17:36:54;10.50;99.90
36444;DHT22;24692;45.642;13.806;2023-03-03T17:45:09;10.20;99.90
36444;DHT22;24692;45.642;13.806;2023-03-03T17:56:08;10.10;99.90
36444;DHT22;24692;45.642;13.806;2023-03-03T17:58:59;10.00;99.90
36444;DHT22;24692;45.642;13.806;2023-03-03T18:04:52;9.90;99.90
36444;DHT22;24692;45.642;13.806;2023-03-03T18:15:33;9.80;99.90
36444;DHT22;24692;45.642;13.806;2023-03-03T18:18:12;9.80;99.90
36444;DHT22;24692;45.642;13.806;2023-03-03T18:23:31;9.70;99.90
36444;DHT22;24692;45.642;13.806;2023-03-03T18:26:04;9.70;99.90
36444;DHT22;24692;45.642;13.806;2023-03-03T18:28:49;9.70;99.90
36444;DHT22;24692;45.642;13.806;2023-03-03T18:31:26;9.70;99.90
36444;DHT22;24692;45.642;13.806;2023-03-03T18:34:08;9.70;99.90
36444;DHT22;24692;45.642;13.806;2023-03-03T18:36:37;9.60;99.90
36444;DHT22;24692;45.642;13.806;2023-03-03T18:39:05;9.50;99.90
36444;DHT22;24692;45.642;13.806;2023-03-03T18:41:33;9.50;99.90
36444;DHT22;24692;45.642;13.806;2023-03-03T18:44:29;9.50;99.90
36444;DHT22;24692;45.642;13.806;2023-03-03T18:46:55;9.50;99.90
36444;DHT22;24692;45.642;13.806;2023-03-03T18:52:20;9.40;99.90
36444;DHT22;24692;45.642;13.806;2023-03-03T18:55:20;9.30;99.90
36444;DHT22;24692;45.642;13.806;2023-03-03T18:58:21;9.20;99.90
36444;DHT22;24692;45.642;13.806;2023-03-03T19:00:48;9.20;99.90
36444;DHT22;24692;45.642;13.806;2023-03-03T19:03:36;9.30;99.90
36444;DHT22;24692;45.642;13.806;2023-03-03T19:06:04;9.40;99.90
36444;DHT22;24692;45.642;13.806;2023-03-03T19:08:50;9.40;99.90
36444;DHT22;24692;45.642;13.806;2023-03-03T19:11:48;9.50;99.90
36444;DHT22;24692;45.642;13.806;2023-03-03T19:14:29;9.60;99.90
36444;DHT22;24692;45.642;13.806;2023-03-03T19:16:58;9.60;99.90
36444;DHT22;24692;45.642;13.806;2023-03-03T19:19:31;9.50;99.90
36444;DHT22;24692;45.642;13.806;2023-03-03T19:22:20;9.60;99.90
36444;DHT22;24692;45.642;13.806;2023-03-03T19:27:42;9.50;99.90
36444;DHT22;24692;45.642;13.806;2023-03-03T19:30:28;9.50;99.90
36444;DHT22;24692;45.642;13.806;2023-03-03T19:44:42;9.40;99.90
36444;DHT22;24692;45.642;13.806;2023-03-03T19:50:34;9.20;99.90
36444;DHT22;24692;45.642;13.806;2023-03-03T20:02:04;9.30;99.90
36444;DHT22;24692;45.642;13.806;2023-03-03T20:04:55;9.40;99.90
36444;DHT22;24692;45.642;13.806;2023-03-03T20:07:31;9.50;99.90
36444;DHT22;24692;45.642;13.806;2023-03-03T20:12:55;9.50;99.90
36444;DHT22;24692;45.642;13.806;2023-03-03T20:36:02;9.40;99.90
36444;DHT22;24692;45.642;13.806;2023-03-03T20:43:37;9.30;99.90
36444;DHT22;24692;45.642;13.806;2023-03-03T20:51:45;9.30;99.90
36444;DHT22;24692;45.642;13.806;2023-03-03T20:54:30;9.30;99.90
36444;DHT22;24692;45.642;13.806;2023-03-03T20:57:08;9.30;99.90
36444;DHT22;24692;45.642;13.806;2023-03-03T21:00:03;9.20;99.90
36444;DHT22;24692;45.642;13.806;2023-03-03T21:02:43;9.20;99.90
36444;DHT22;24692;45.642;13.806;2023-03-03T21:05:18;9.20;99.90
36444;DHT22;24692;45.642;13.806;2023-03-03T21:07:56;9.20;99.90
36444;DHT22;24692;45.642;13.806;2023-03-03T21:10:25;9.20;99.90
36444;DHT22;24692;45.642;13.806;2023-03-03T21:12:53;9.20;99.90
36444;DHT22;24692;45.642;13.806;2023-03-03T21:15:30;9.20;99.90
36444;DHT22;24692;45.642;13.806;2023-03-03T21:17:58;9.10;99.90
36444;DHT22;24692;45.642;13.806;2023-03-03T21:20:27;9.10;99.90
36444;DHT22;24692;45.642;13.806;2023-03-03T21:22:54;9.10;99.90
36444;DHT22;24692;45.642;13.806;2023-03-03T21:31:08;9.00;99.90
36444;DHT22;24692;45.642;13.806;2023-03-03T21:33:48;9.00;99.90
36444;DHT22;24692;45.642;13.806;2023-03-03T21:38:50;9.00;99.90
36444;DHT22;24692;45.642;13.806;2023-03-03T21:41:17;9.00;99.90
36444;DHT22;24692;45.642;13.806;2023-03-03T21:43:46;9.00;99.90